GMMN

Casablanca/Mohammed V International Airport

Airport
ICAO code
GMMN
IATA Code
CMN
Summary
ICAO Region
AFI
ICAO Territory
Location

Casablanca, Grand Casablanca

Serving
Casablanca
Elevation
656 ft
Coordinates
33° 22' 4" N , 7° 35' 32" W
KCC
Metar
Observation
GMMN 301430Z 36006KT 320V080 CAVOK 19/10 Q1015 NOSIG
Station
Nouasseur
Date/Time
2022-11-30 14:30:00
Wind direction
360°
Wind speed
06 kts
Lowest cloud amount
clouds and visibility OK
Temperature
19°C
Dew point
10°C
Humidity
55%
QNH
1015 hPa
Weather condition
n/a

International airport serving Casablanca.

Climatology

Warm mediterranean climate (Köppen climate classification Csa)

Runways

Designator Length Width Surface Rops
17L/35R 3720 45 ASP Yes/Yes
17R/35L 3720 45 ASP Yes/Yes

Airport map

Aerial View

Airport accidents

SKYbrary Partners:

Safety knowledge contributed by: